High Level, Canada
Current Conditions -  °F | °C
As of 12:00 PM on Sunday 23 Nov 2014 (Local Time) from CYOJ Reporting Station
Broken Clouds Broken Clouds  
Wind Chill:   Ceiling: 8500
Heat Index:   Visibility: 12mi
Dew Point:   Wind: 2mph
Humidity: 85%   Direction: NA
Pressure: 29.75"   Gusts: NA
Location:  58.52°N, 117.13°W
Report Text: CYOJ 231900Z VRB02KT 12SM SCT008 BKN085 M16/M18 A2975 RMK SC4AC3 SLP110
Loading
Personal Weather Stations






























Interactive Weather Map New forecast layout! Learn more

10-Day Weather Forecast

Advertisements
Track Severe Weather on mobile